Time;durP1;ratioP1;P1;durP2;ratioP2;P2;SDS_P1;SDS_P2;PMS_P1;PMS_P2;Temp;Humidity;BMP_temperature;BMP_pressure;BME280_temperature;BME280_humidity;BME280_pressure;Samples;Min_cycle;Max_cycle;Signal;HPM_P1;HPM_P2
2020/12/30 00:01:21;;;;;;;13.32;9.50;;;;;;;1.72;100.00;99093.34;10138884;29;20048;-75
2020/12/30 00:06:23;;;;;;;12.57;8.90;;;;;;;1.66;100.00;99085.75;10142871;29;20366;-75
2020/12/30 00:11:24;;;;;;;12.85;8.88;;;;;;;1.68;100.00;99091.72;10137953;29;20060;-75
2020/12/30 00:16:25;;;;;;;12.55;8.30;;;;;;;1.72;100.00;99079.50;10138916;29;20047;-75
2020/12/30 00:21:26;;;;;;;11.45;7.75;;;;;;;1.79;100.00;99086.19;10135432;29;20092;-75
2020/12/30 00:26:27;;;;;;;10.85;8.15;;;;;;;1.71;100.00;99065.66;10135477;29;20052;-76
2020/12/30 00:31:32;;;;;;;11.93;8.65;;;;;;;1.66;100.00;99058.94;10135063;29;20045;-75
2020/12/30 00:36:38;;;;;;;13.48;8.15;;;;;;;1.76;100.00;99079.34;10134427;29;20045;-76
2020/12/30 00:41:39;;;;;;;10.00;7.93;;;;;;;1.77;100.00;99086.22;10134576;29;20063;-76
2020/12/30 00:46:40;;;;;;;13.57;9.43;;;;;;;1.73;100.00;99081.19;10115829;29;20048;-75
2020/12/30 00:51:41;;;;;;;12.38;9.68;;;;;;;1.85;100.00;99094.59;10116842;29;20076;-75
2020/12/30 00:56:42;;;;;;;11.43;7.93;;;;;;;1.88;100.00;99091.94;10110791;29;20049;-75
2020/12/30 01:01:50;;;;;;;12.05;8.23;;;;;;;1.81;100.00;99090.44;10115084;29;20557;-76
2020/12/30 01:07:02;;;;;;;12.25;9.02;;;;;;;1.85;100.00;99104.16;10138057;29;20512;-75
2020/12/30 01:12:05;;;;;;;9.18;7.35;;;;;;;1.85;100.00;99104.16;10152614;29;20421;-75
2020/12/30 01:17:06;;;;;;;10.93;7.05;;;;;;;1.97;100.00;99118.47;10135390;29;20402;-75
2020/12/30 01:22:07;;;;;;;8.48;6.57;;;;;;;2.02;100.00;99122.63;10135537;29;20524;-75
2020/12/30 01:27:08;;;;;;;10.30;7.60;;;;;;;2.06;100.00;99123.38;10137080;29;20079;-75
2020/12/30 01:32:09;;;;;;;13.25;8.05;;;;;;;2.02;100.00;99129.56;10134505;29;20052;-75
2020/12/30 01:37:10;;;;;;;11.07;8.73;;;;;;;2.07;100.00;99140.66;10118905;29;20500;-75
2020/12/30 01:42:12;;;;;;;11.27;8.05;;;;;;;2.15;100.00;99152.50;10109040;29;20049;-75
2020/12/30 01:47:13;;;;;;;9.40;7.70;;;;;;;2.21;100.00;99154.88;10097689;29;20478;-75
2020/12/30 01:52:14;;;;;;;14.85;8.13;;;;;;;2.14;100.00;99148.19;10120351;29;20052;-75
2020/12/30 01:57:15;;;;;;;8.88;7.30;;;;;;;2.18;100.00;99160.16;10142311;29;20457;-75
2020/12/30 02:02:22;;;;;;;11.30;8.73;;;;;;;2.19;100.00;99164.47;10137630;29;20108;-75
2020/12/30 02:07:24;;;;;;;11.10;8.10;;;;;;;2.15;100.00;99173.28;10134078;29;20046;-75
2020/12/30 02:12:27;;;;;;;12.77;9.02;;;;;;;2.00;100.00;99167.75;10138453;29;20100;-75
2020/12/30 02:17:28;;;;;;;10.68;8.13;;;;;;;1.86;100.00;99171.59;10142516;29;20041;-76
2020/12/30 02:22:30;;;;;;;12.48;9.13;;;;;;;1.77;100.00;99168.44;10142973;29;20055;-75
2020/12/30 02:27:31;;;;;;;11.15;8.27;;;;;;;1.73;100.00;99177.25;10143032;29;20060;-76
2020/12/30 02:32:32;;;;;;;12.88;9.70;;;;;;;1.66;100.00;99179.19;10142593;29;20470;-75
2020/12/30 02:37:33;;;;;;;12.90;9.32;;;;;;;1.73;100.00;99179.84;10141061;29;20052;-75
2020/12/30 02:42:35;;;;;;;13.95;8.40;;;;;;;1.64;100.00;99188.78;10141792;29;20100;-75
2020/12/30 02:47:36;;;;;;;11.82;8.40;;;;;;;1.56;100.00;99188.16;10141765;29;20057;-76
2020/12/30 02:52:37;;;;;;;11.25;8.48;;;;;;;1.37;100.00;99190.44;10141933;29;20048;-76
2020/12/30 02:57:38;;;;;;;9.63;8.13;;;;;;;1.33;100.00;99196.63;10151988;29;20040;-75
2020/12/30 03:02:39;;;;;;;10.73;7.43;;;;;;;1.19;100.00;99190.13;10180781;29;20056;-75
2020/12/30 03:07:41;;;;;;;10.35;8.18;;;;;;;1.14;100.00;99192.88;10145116;29;20045;-75
2020/12/30 03:12:43;;;;;;;12.13;8.82;;;;;;;1.13;100.00;99204.13;10139330;29;20040;-76
2020/12/30 03:17:44;;;;;;;15.25;8.70;;;;;;;1.13;100.00;99220.53;10139331;29;20044;-76
2020/12/30 03:22:45;;;;;;;11.30;8.75;;;;;;;1.11;100.00;99229.25;10139168;29;20386;-76
2020/12/30 03:27:46;;;;;;;12.13;8.57;;;;;;;1.10;100.00;99240.50;10140020;29;20099;-76
2020/12/30 03:32:47;;;;;;;12.25;8.90;;;;;;;1.01;100.00;99233.00;10139525;29;20063;-76
2020/12/30 03:37:48;;;;;;;10.55;8.02;;;;;;;0.95;100.00;99227.97;10140371;29;20108;-75
2020/12/30 03:42:49;;;;;;;10.40;8.45;;;;;;;0.75;100.00;99220.75;10139665;29;20063;-76
2020/12/30 03:47:50;;;;;;;11.52;8.88;;;;;;;0.83;100.00;99249.91;10139922;29;20100;-76
2020/12/30 03:52:51;;;;;;;11.93;7.57;;;;;;;0.78;100.00;99238.81;10140324;29;20092;-75
2020/12/30 03:57:52;;;;;;;12.73;8.57;;;;;;;0.80;100.00;99250.00;10151043;29;20051;-76
2020/12/30 04:02:54;;;;;;;14.43;9.27;;;;;;;0.71;100.00;99263.19;10141311;29;20056;-75
2020/12/30 04:07:55;;;;;;;12.52;8.52;;;;;;;0.61;100.00;99264.31;10130239;29;20044;-75
2020/12/30 04:12:56;;;;;;;11.77;8.57;;;;;;;0.75;100.00;99275.19;10083664;29;20059;-75
2020/12/30 04:17:57;;;;;;;11.45;8.23;;;;;;;0.72;100.00;99273.53;10119779;29;20044;-76
2020/12/30 04:22:58;;;;;;;13.07;9.65;;;;;;;0.98;100.00;99297.91;10138672;29;20045;-75
2020/12/30 04:27:59;;;;;;;13.00;8.70;;;;;;;1.10;100.00;99305.34;10138202;29;20048;-76
2020/12/30 04:33:00;;;;;;;15.02;10.70;;;;;;;1.11;100.00;99307.91;10138763;29;20056;-76
2020/12/30 04:38:04;;;;;;;15.52;9.13;;;;;;;1.11;100.00;99307.06;10138077;29;20092;-75
2020/12/30 04:43:05;;;;;;;11.07;7.70;;;;;;;1.13;100.00;99315.66;10137771;29;20057;-75
2020/12/30 04:48:10;;;;;;;10.13;7.45;;;;;;;1.11;100.00;99307.91;10141823;29;20082;-75
2020/12/30 04:53:13;;;;;;;12.13;7.78;;;;;;;1.08;100.00;99320.97;10152391;29;20071;-76
2020/12/30 04:58:16;;;;;;;13.52;8.45;;;;;;;1.12;100.00;99316.53;10132266;29;20066;-76
2020/12/30 05:03:27;;;;;;;17.42;9.40;;;;;;;1.30;100.00;99339.41;10176430;29;20048;-75
2020/12/30 05:08:28;;;;;;;14.82;9.70;;;;;;;1.30;100.00;99338.53;10163757;29;20052;-75
2020/12/30 05:13:29;;;;;;;13.32;9.05;;;;;;;1.22;100.00;99320.59;10160379;29;20059;-75
2020/12/30 05:18:30;;;;;;;13.82;10.00;;;;;;;1.32;100.00;99331.59;10165451;29;20493;-76
2020/12/30 05:23:32;;;;;;;17.40;11.48;;;;;;;1.31;100.00;99328.13;10134675;29;20044;-76
2020/12/30 05:28:33;;;;;;;15.45;10.30;;;;;;;1.23;100.00;99321.44;10135503;29;20044;-76
2020/12/30 05:33:36;;;;;;;16.85;10.40;;;;;;;1.32;100.00;99331.59;10135457;29;20072;-76
2020/12/30 05:38:38;;;;;;;17.98;11.18;;;;;;;1.31;100.00;99333.31;10117956;29;20386;-76
2020/12/30 05:43:39;;;;;;;21.10;12.93;;;;;;;1.39;100.00;99333.97;10136085;29;20056;-75
2020/12/30 05:48:42;;;;;;;19.50;14.55;;;;;;;1.44;100.00;99336.41;10137016;29;20048;-75
2020/12/30 05:53:43;;;;;;;21.20;15.48;;;;;;;1.39;100.00;99327.91;10136818;29;20053;-76
2020/12/30 05:58:48;;;;;;;21.48;13.73;;;;;;;1.43;100.00;99339.91;10135563;29;20101;-76
2020/12/30 06:03:50;;;;;;;23.75;15.65;;;;;;;1.26;100.00;99329.97;10134653;29;20398;-76
2020/12/30 06:08:53;;;;;;;20.50;15.20;;;;;;;1.21;100.00;99339.66;10117279;29;20048;-75
2020/12/30 06:13:55;;;;;;;23.90;14.27;;;;;;;1.17;100.00;99339.78;10119340;29;20056;-75
2020/12/30 06:18:56;;;;;;;20.92;13.38;;;;;;;1.11;100.00;99346.81;10135716;29;20052;-75
2020/12/30 06:24:00;;;;;;;21.50;12.80;;;;;;;1.10;100.00;99349.44;10135242;29;20045;-76
2020/12/30 06:29:01;;;;;;;17.73;11.85;;;;;;;1.10;100.00;99373.63;10135174;29;20056;-76
2020/12/30 06:34:03;;;;;;;21.25;12.35;;;;;;;1.06;100.00;99372.03;10135098;29;20056;-75
2020/12/30 06:39:23;;;;;;;24.20;13.57;;;;;;;1.01;100.00;99376.47;10110697;29;20100;-75
2020/12/30 06:44:41;;;;;;;20.48;12.23;;;;;;;0.95;100.00;99379.22;10095006;29;20041;-75
2020/12/30 06:49:42;;;;;;;20.70;12.25;;;;;;;0.82;100.00;99374.38;10130126;29;20051;-76
2020/12/30 06:54:47;;;;;;;19.35;13.15;;;;;;;0.69;100.00;99382.44;10134708;29;20045;-76
2020/12/30 06:59:48;;;;;;;19.15;12.73;;;;;;;0.67;100.00;99393.75;10138163;29;20037;-76
2020/12/30 07:05:00;;;;;;;21.70;13.82;;;;;;;0.80;100.00;99400.34;10124688;29;20108;-75
2020/12/30 07:10:24;;;;;;;22.92;14.18;;;;;;;0.92;100.00;99418.16;10141772;29;20386;-75
2020/12/30 07:15:28;;;;;;;25.35;17.33;;;;;;;0.99;100.00;99424.94;10141019;29;20048;-76
2020/12/30 07:20:39;;;;;;;27.50;19.57;;;;;;;1.12;100.00;99447.06;10140318;29;20051;-76
2020/12/30 07:25:50;;;;;;;30.48;19.38;;;;;;;1.39;100.00;99458.50;10140767;29;20059;-76
2020/12/30 07:30:51;;;;;;;29.52;19.10;;;;;;;1.67;100.00;99478.56;10140396;29;20087;-75
2020/12/30 07:36:02;;;;;;;28.40;17.45;;;;;;;1.78;100.00;99477.38;10138814;29;20128;-75
2020/12/30 07:41:10;;;;;;;26.98;18.98;;;;;;;1.75;100.00;99472.28;10140658;29;20052;-75
2020/12/30 07:46:21;;;;;;;30.77;21.00;;;;;;;1.87;100.00;99487.50;10139336;29;20520;-76
2020/12/30 07:51:22;;;;;;;26.55;17.73;;;;;;;1.85;100.00;99491.88;10174595;29;20099;-75
2020/12/30 07:56:25;;;;;;;30.90;20.95;;;;;;;1.85;100.00;99493.63;10152860;29;20041;-75
2020/12/30 08:01:26;;;;;;;28.88;18.30;;;;;;;1.87;100.00;99503.09;10116338;29;20044;-75
2020/12/30 08:06:28;;;;;;;32.55;21.08;;;;;;;1.86;100.00;99493.59;10137669;29;20052;-76
2020/12/30 08:11:29;;;;;;;27.80;18.65;;;;;;;2.03;100.00;99513.06;10137567;29;20059;-75
2020/12/30 08:16:31;;;;;;;27.98;19.83;;;;;;;1.92;100.00;99499.53;10138866;29;20052;-76
2020/12/30 08:21:32;;;;;;;30.27;20.05;;;;;;;2.02;100.00;99508.75;10138658;29;20127;-75
2020/12/30 08:26:37;;;;;;;24.83;17.80;;;;;;;2.21;100.00;99534.19;10116332;29;20059;-75
2020/12/30 08:31:53;;;;;;;27.77;16.50;;;;;;;2.26;100.00;99532.31;10140983;29;20059;-75
2020/12/30 08:37:03;;;;;;;27.30;16.70;;;;;;;2.32;100.00;99535.66;10159806;29;20429;-75
2020/12/30 08:42:12;;;;;;;28.60;17.80;;;;;;;2.06;100.00;99519.03;10144416;29;20075;-75
2020/12/30 08:47:20;;;;;;;26.17;16.38;;;;;;;2.21;100.00;99531.59;10130799;29;20044;-75
2020/12/30 08:52:21;;;;;;;20.88;14.85;;;;;;;2.20;100.00;99536.84;10168259;29;20048;-75
2020/12/30 08:57:22;;;;;;;24.63;15.82;;;;;;;2.07;100.00;99535.47;10163754;29;20040;-75
2020/12/30 09:02:23;;;;;;;23.05;16.52;;;;;;;2.13;100.00;99541.34;10149988;29;20513;-75
2020/12/30 09:07:26;;;;;;;20.65;14.60;;;;;;;2.17;100.00;99547.31;10136501;29;20485;-76
2020/12/30 09:12:27;;;;;;;24.10;15.85;;;;;;;2.16;100.00;99553.41;10137428;29;20044;-75
2020/12/30 09:17:28;;;;;;;24.85;16.80;;;;;;;2.25;100.00;99547.97;10135429;29;20045;-75
2020/12/30 09:22:33;;;;;;;25.53;15.97;;;;;;;2.42;100.00;99561.34;10135867;29;20044;-75
2020/12/30 09:27:35;;;;;;;24.20;17.73;;;;;;;2.62;100.00;99564.22;10136066;29;20053;-74
2020/12/30 09:32:38;;;;;;;25.55;17.50;;;;;;;2.96;100.00;99582.28;10135255;29;20061;-74
2020/12/30 09:37:40;;;;;;;23.50;16.25;;;;;;;3.02;100.00;99581.25;10123768;29;20409;-74
2020/12/30 09:42:42;;;;;;;26.17;16.77;;;;;;;3.01;100.00;99576.97;10158890;29;20053;-74
2020/12/30 09:47:44;;;;;;;25.60;17.13;;;;;;;3.33;100.00;99584.63;10136080;29;20475;-74
2020/12/30 09:52:46;;;;;;;26.60;18.38;;;;;;;3.39;100.00;99580.97;10118347;29;20040;-74
2020/12/30 09:57:47;;;;;;;24.42;15.73;;;;;;;3.43;100.00;99572.19;10135497;29;20044;-74
2020/12/30 10:02:48;;;;;;;25.38;15.38;;;;;;;3.65;100.00;99574.94;10117935;29;20048;-74
2020/12/30 10:07:50;;;;;;;23.13;16.05;;;;;;;3.99;100.00;99587.69;10134084;29;20056;-74
2020/12/30 10:12:51;;;;;;;22.52;15.90;;;;;;;4.03;100.00;99568.44;10131986;29;20052;-72
2020/12/30 10:17:52;;;;;;;23.38;16.70;;;;;;;4.36;100.00;99562.03;10132475;29;20044;-72
2020/12/30 10:22:53;;;;;;;22.40;15.25;;;;;;;4.69;100.00;99569.53;10133172;29;20048;-72
2020/12/30 10:27:54;;;;;;;18.80;14.45;;;;;;;4.74;100.00;99551.97;10125828;29;20602;-73
2020/12/30 10:32:56;;;;;;;20.30;14.05;;;;;;;4.69;100.00;99518.22;10135672;29;20061;-74
2020/12/30 10:37:57;;;;;;;20.73;15.10;;;;;;;4.78;100.00;99501.38;10142330;29;20052;-74
2020/12/30 10:42:58;;;;;;;19.17;13.35;;;;;;;5.04;100.00;99496.00;10137785;29;20051;-74
2020/12/30 10:47:59;;;;;;;17.35;12.43;;;;;;;5.12;100.00;99491.31;10139664;29;20056;-74
2020/12/30 10:53:00;;;;;;;20.73;13.23;;;;;;;5.32;100.00;99499.22;10139280;29;20382;-73
2020/12/30 10:58:02;;;;;;;16.10;13.25;;;;;;;5.47;100.00;99484.66;10139139;29;20055;-74
2020/12/30 11:03:03;;;;;;;18.65;13.52;;;;;;;5.45;100.00;99485.63;10139610;29;20397;-74
2020/12/30 11:08:04;;;;;;;19.23;13.77;;;;;;;5.14;100.00;99467.75;10139406;29;20705;-75
2020/12/30 11:13:05;;;;;;;19.85;13.88;;;;;;;5.47;100.00;99475.97;10140521;29;20053;-74
2020/12/30 11:18:06;;;;;;;17.30;13.07;;;;;;;5.55;100.00;99468.66;10141107;29;20044;-74
2020/12/30 11:23:08;;;;;;;17.90;13.27;;;;;;;5.58;100.00;99453.72;10140875;29;20044;-74
2020/12/30 11:28:09;;;;;;;18.83;12.95;;;;;;;5.84;100.00;99465.69;10140386;29;20053;-74
2020/12/30 11:33:11;;;;;;;19.17;13.13;;;;;;;5.44;100.00;99431.72;10140679;29;20478;-74
2020/12/30 11:38:12;;;;;;;19.77;13.32;;;;;;;5.33;100.00;99432.16;10148663;29;20405;-74
2020/12/30 11:43:13;;;;;;;20.17;13.75;;;;;;;5.38;100.00;99438.03;10152260;29;20051;-74
2020/12/30 11:48:14;;;;;;;17.30;13.75;;;;;;;5.19;100.00;99424.06;10139822;29;20044;-74
2020/12/30 11:53:15;;;;;;;22.40;15.43;;;;;;;5.06;100.00;99417.63;10138184;29;20131;-74
2020/12/30 11:58:16;;;;;;;19.90;15.10;;;;;;;5.05;100.00;99416.78;10139319;29;20047;-74
2020/12/30 12:03:17;;;;;;;22.80;16.15;;;;;;;5.26;100.00;99435.94;10139848;29;20470;-74
2020/12/30 12:08:18;;;;;;;19.67;16.05;;;;;;;5.07;100.00;99421.94;10138126;29;20056;-74
2020/12/30 12:13:19;;;;;;;19.73;14.65;;;;;;;5.29;100.00;99435.81;10138545;29;20055;-74
2020/12/30 12:18:20;;;;;;;20.98;15.27;;;;;;;5.40;100.00;99449.28;10114607;29;20033;-74
2020/12/30 12:23:25;;;;;;;20.10;14.77;;;;;;;5.33;100.00;99438.25;10163009;29;20103;-74
2020/12/30 12:28:38;;;;;;;19.97;13.93;;;;;;;5.11;100.00;99432.19;10122714;29;20040;-74
2020/12/30 12:33:39;;;;;;;19.63;14.95;;;;;;;5.09;100.00;99443.63;10154053;29;20053;-74
2020/12/30 12:38:41;;;;;;;19.60;14.10;;;;;;;4.91;100.00;99440.84;10135518;29;20051;-74
2020/12/30 12:43:43;;;;;;;19.33;14.38;;;;;;;4.90;100.00;99453.94;10151216;29;20046;-74
2020/12/30 12:48:44;;;;;;;19.67;13.80;;;;;;;5.05;100.00;99463.75;10137311;29;20052;-75
2020/12/30 12:53:45;;;;;;;18.77;14.63;;;;;;;4.86;100.00;99453.19;10136513;29;20048;-75
2020/12/30 12:58:46;;;;;;;17.65;12.70;;;;;;;4.81;100.00;99469.94;10102135;29;20044;-75
2020/12/30 13:03:48;;;;;;;19.45;13.90;;;;;;;4.80;100.00;99476.06;10098021;29;20073;-75
2020/12/30 13:08:49;;;;;;;19.10;15.50;;;;;;;4.79;100.00;99479.59;10128826;29;20090;-75
2020/12/30 13:13:51;;;;;;;20.02;15.48;;;;;;;4.79;100.00;99495.25;10136889;29;20529;-75
2020/12/30 13:18:52;;;;;;;20.63;14.48;;;;;;;4.77;100.00;99499.69;10136417;29;20053;-74
2020/12/30 13:23:53;;;;;;;19.90;15.20;;;;;;;4.73;100.00;99503.31;10136582;29;20179;-75
2020/12/30 13:28:54;;;;;;;23.75;16.13;;;;;;;4.72;100.00;99506.84;10147107;29;20429;-75
2020/12/30 13:33:55;;;;;;;25.27;16.85;;;;;;;4.58;100.00;99520.41;10153371;29;20056;-75
2020/12/30 13:38:57;;;;;;;22.98;16.38;;;;;;;4.38;100.00;99533.31;10134236;29;20048;-75
2020/12/30 13:43:58;;;;;;;20.08;15.48;;;;;;;4.25;100.00;99550.31;10135933;29;20041;-74
2020/12/30 13:48:59;;;;;;;20.00;15.10;;;;;;;4.23;100.00;99570.34;10133926;29;20044;-74
2020/12/30 13:54:03;;;;;;;19.73;14.77;;;;;;;4.27;100.00;99598.88;10123557;29;20399;-75
2020/12/30 13:59:05;;;;;;;19.77;14.32;;;;;;;4.64;100.00;99595.81;10132682;29;20083;-75
2020/12/30 14:04:06;;;;;;;21.77;15.10;;;;;;;4.30;100.00;99598.75;10131996;29;20049;-75
2020/12/30 14:09:07;;;;;;;24.60;15.80;;;;;;;4.24;100.00;99611.16;10137631;29;20052;-74
2020/12/30 14:14:12;;;;;;;23.48;15.55;;;;;;;4.13;100.00;99620.19;10137482;29;20132;-75
2020/12/30 14:19:13;;;;;;;23.15;16.40;;;;;;;4.10;100.00;99630.72;10126264;29;20064;-74
2020/12/30 14:24:15;;;;;;;21.17;15.52;;;;;;;4.06;100.00;99628.28;10143024;29;20047;-75
2020/12/30 14:29:16;;;;;;;23.17;18.02;;;;;;;4.17;100.00;99654.84;10144190;29;20048;-74
2020/12/30 14:34:17;;;;;;;22.17;17.33;;;;;;;4.13;100.00;99646.25;10142106;29;20496;-75
2020/12/30 14:39:21;;;;;;;21.20;15.55;;;;;;;4.13;100.00;99656.69;10104068;29;20048;-75
2020/12/30 14:44:23;;;;;;;26.85;17.23;;;;;;;4.11;100.00;99658.47;10125664;29;20092;-75
2020/12/30 14:49:24;;;;;;;24.63;18.02;;;;;;;4.13;100.00;99677.53;10137612;29;20040;-75
2020/12/30 14:54:25;;;;;;;23.05;17.02;;;;;;;4.16;100.00;99676.59;10133413;29;20048;-75
2020/12/30 14:59:39;;;;;;;24.30;16.73;;;;;;;4.14;100.00;99679.25;10136090;29;20044;-75
2020/12/30 15:04:41;;;;;;;26.67;17.98;;;;;;;4.10;100.00;99669.81;10120967;29;20047;-75
2020/12/30 15:09:42;;;;;;;31.52;22.35;;;;;;;4.15;100.00;99680.09;10138063;29;20044;-75
2020/12/30 15:14:43;;;;;;;43.35;33.85;;;;;;;4.11;100.00;99694.13;10137705;29;20568;-75
2020/12/30 15:19:47;;;;;;;59.55;41.08;;;;;;;4.14;100.00;99705.31;10138828;29;20521;-74
2020/12/30 15:24:48;;;;;;;28.75;20.40;;;;;;;4.11;100.00;99704.53;10139302;29;20053;-74
2020/12/30 15:29:49;;;;;;;43.13;29.20;;;;;;;4.11;100.00;99696.72;10142227;29;20049;-74
2020/12/30 15:34:50;;;;;;;32.58;24.15;;;;;;;4.14;100.00;99701.84;10136177;29;20065;-74
2020/12/30 15:39:51;;;;;;;32.25;23.90;;;;;;;4.10;100.00;99697.66;10137328;29;20546;-74
2020/12/30 15:44:52;;;;;;;28.17;21.90;;;;;;;4.06;100.00;99703.84;10137609;29;20052;-74
2020/12/30 15:49:53;;;;;;;24.92;18.88;;;;;;;4.04;100.00;99713.47;10138246;29;20490;-75
2020/12/30 15:54:55;;;;;;;25.98;18.40;;;;;;;4.04;100.00;99716.94;10137953;29;20132;-74
2020/12/30 15:59:56;;;;;;;24.27;17.00;;;;;;;3.97;100.00;99707.59;10113254;29;20044;-77
2020/12/30 16:04:57;;;;;;;26.55;19.42;;;;;;;3.98;100.00;99717.13;10134131;29;20053;-78
2020/12/30 16:09:58;;;;;;;31.33;20.90;;;;;;;4.02;100.00;99726.53;10100157;29;20047;-76
2020/12/30 16:15:00;;;;;;;28.35;20.65;;;;;;;4.06;100.00;99730.78;10152389;29;20054;-76
2020/12/30 16:20:01;;;;;;;28.13;20.13;;;;;;;4.03;100.00;99735.22;10121855;29;20092;-77
2020/12/30 16:25:04;;;;;;;25.70;18.25;;;;;;;4.05;100.00;99734.28;10111874;29;20072;-77
2020/12/30 16:30:05;;;;;;;27.02;19.38;;;;;;;4.05;100.00;99739.50;10140591;29;20051;-78
2020/12/30 16:35:06;;;;;;;24.02;17.08;;;;;;;4.05;100.00;99738.63;10154099;29;20064;-76
2020/12/30 16:40:07;;;;;;;27.65;18.00;;;;;;;4.11;100.00;99744.50;10137618;29;20055;-77
2020/12/30 16:45:08;;;;;;;26.08;18.27;;;;;;;4.11;100.00;99748.84;10136764;29;20430;-76
2020/12/30 16:50:09;;;;;;;25.10;17.40;;;;;;;4.07;100.00;99742.91;10136414;29;20111;-76
2020/12/30 16:55:11;;;;;;;26.05;16.73;;;;;;;4.08;100.00;99733.34;10135417;29;20052;-76
2020/12/30 17:00:12;;;;;;;22.63;17.50;;;;;;;4.04;100.00;99724.75;10136461;29;20041;-76
2020/12/30 17:05:13;;;;;;;22.50;16.33;;;;;;;4.06;100.00;99733.38;10134293;29;20060;-76
2020/12/30 17:10:16;;;;;;;24.02;17.00;;;;;;;4.06;100.00;99737.75;10131812;29;20477;-77
2020/12/30 17:15:17;;;;;;;22.45;16.20;;;;;;;4.03;100.00;99737.81;10132821;29;20041;-77
2020/12/30 17:20:19;;;;;;;22.55;16.98;;;;;;;3.98;100.00;99737.97;10135959;29;20450;-76
2020/12/30 17:25:20;;;;;;;22.20;15.38;;;;;;;3.96;100.00;99738.91;10136684;29;20409;-78
2020/12/30 17:30:21;;;;;;;22.75;14.80;;;;;;;3.94;100.00;99733.75;10134956;29;20045;-77
2020/12/30 17:35:24;;;;;;;24.05;15.80;;;;;;;3.88;100.00;99728.75;10236721;23;20055;-77
2020/12/30 17:40:25;;;;;;;17.52;14.00;;;;;;;3.85;100.00;99731.44;10251716;28;20047;-76
2020/12/30 17:45:26;;;;;;;17.33;12.68;;;;;;;3.91;100.00;99735.63;10220536;29;20047;-78
2020/12/30 17:50:32;;;;;;;20.65;13.82;;;;;;;3.94;100.00;99746.78;10253274;29;20126;-76
2020/12/30 17:55:33;;;;;;;17.52;11.40;;;;;;;3.88;100.00;99735.69;10226935;29;20043;-76
2020/12/30 18:00:34;;;;;;;17.27;11.77;;;;;;;3.91;100.00;99723.44;10230536;29;20472;-76
2020/12/30 18:05:35;;;;;;;16.02;10.82;;;;;;;3.96;100.00;99724.13;10246667;29;20383;-76
2020/12/30 18:10:36;;;;;;;16.08;10.63;;;;;;;3.98;100.00;99726.69;10249381;29;20051;-75
2020/12/30 18:15:37;;;;;;;17.00;11.20;;;;;;;3.98;100.00;99714.53;10251346;29;20459;-75
2020/12/30 18:20:38;;;;;;;54.40;35.75;;;;;;;3.91;100.00;99710.41;10257635;28;20046;-75
2020/12/30 18:25:42;;;;;;;17.65;13.68;;;;;;;3.95;100.00;99714.63;10250987;28;20051;-75
2020/12/30 18:30:43;;;;;;;13.88;9.60;;;;;;;3.96;100.00;99712.88;10221001;29;20039;-75
2020/12/30 18:35:44;;;;;;;14.02;10.63;;;;;;;4.01;100.00;99710.97;10231726;28;20055;-75
2020/12/30 18:40:46;;;;;;;14.57;10.75;;;;;;;4.00;100.00;99704.06;10244215;29;20385;-74
2020/12/30 18:45:47;;;;;;;15.75;12.43;;;;;;;4.06;100.00;99704.72;10250530;29;20388;-75
2020/12/30 18:50:48;;;;;;;16.05;11.45;;;;;;;4.02;100.00;99700.47;10251779;29;20959;-74
2020/12/30 18:55:49;;;;;;;14.95;11.57;;;;;;;4.02;100.00;99687.44;10257721;28;20055;-75
2020/12/30 19:00:50;;;;;;;15.50;11.05;;;;;;;4.17;100.00;99702.63;10241935;29;20075;-74
2020/12/30 19:05:51;;;;;;;16.48;10.98;;;;;;;4.16;100.00;99698.31;10258426;29;20555;-75
2020/12/30 19:10:52;;;;;;;14.02;10.85;;;;;;;3.94;100.00;99681.63;10258523;29;20054;-74
2020/12/30 19:15:55;;;;;;;17.98;11.27;;;;;;;3.86;100.00;99690.59;10258381;29;20054;-74
2020/12/30 19:20:56;;;;;;;14.88;10.80;;;;;;;3.82;100.00;99702.88;10240368;28;20046;-74
2020/12/30 19:25:58;;;;;;;14.13;10.65;;;;;;;3.80;100.00;99705.53;10253506;28;20043;-75
2020/12/30 19:30:59;;;;;;;14.32;10.95;;;;;;;3.93;100.00;99719.03;10257943;29;20070;-74
2020/12/30 19:36:01;;;;;;;16.23;11.18;;;;;;;3.88;100.00;99705.28;10252366;28;20416;-75
2020/12/30 19:41:02;;;;;;;15.20;12.00;;;;;;;3.98;100.00;99709.31;10253808;29;20057;-75
2020/12/30 19:46:03;;;;;;;16.67;10.25;;;;;;;3.98;100.00;99706.72;10238702;29;20057;-75
2020/12/30 19:51:05;;;;;;;16.85;10.52;;;;;;;3.98;100.00;99711.94;10255019;29;20043;-75
2020/12/30 19:56:11;;;;;;;19.20;13.15;;;;;;;4.00;100.00;99714.47;10257432;28;20039;-74
2020/12/30 20:01:17;;;;;;;21.23;15.20;;;;;;;4.01;100.00;99710.97;10262375;28;20035;-74
2020/12/30 20:06:19;;;;;;;19.13;14.95;;;;;;;3.93;100.00;99706.03;10252633;28;20032;-74
2020/12/30 20:11:20;;;;;;;34.20;28.27;;;;;;;3.89;100.00;99704.41;10254477;28;20043;-74
2020/12/30 20:16:22;;;;;;;26.17;21.33;;;;;;;3.90;100.00;99708.72;10254194;28;20050;-74
2020/12/30 20:21:25;;;;;;;16.05;10.93;;;;;;;3.77;100.00;99696.94;10268933;28;20035;-74
2020/12/30 20:26:26;;;;;;;18.48;13.73;;;;;;;3.84;100.00;99702.84;10285868;28;20051;-75
2020/12/30 20:31:27;;;;;;;15.77;11.95;;;;;;;3.86;100.00;99709.69;10254258;29;20099;-74
2020/12/30 20:36:29;;;;;;;13.13;8.32;;;;;;;3.68;100.00;99705.91;10250269;28;20114;-75
2020/12/30 20:41:30;;;;;;;13.95;9.85;;;;;;;3.58;100.00;99711.47;10238165;29;20455;-75
2020/12/30 20:46:31;;;;;;;12.25;9.52;;;;;;;3.58;100.00;99721.88;10237592;29;20047;-75
2020/12/30 20:51:32;;;;;;;16.20;11.98;;;;;;;3.56;100.00;99716.72;10252957;29;20052;-75
2020/12/30 20:56:33;;;;;;;12.55;8.43;;;;;;;3.66;100.00;99719.88;10237178;29;20043;-75
2020/12/30 21:01:35;;;;;;;25.50;17.40;;;;;;;3.63;100.00;99705.19;10254735;29;20047;-75
2020/12/30 21:06:36;;;;;;;24.00;17.88;;;;;;;3.60;100.00;99709.66;10254011;29;20054;-75
2020/12/30 21:11:38;;;;;;;12.57;9.77;;;;;;;3.57;100.00;99712.34;10265726;28;20039;-74
2020/12/30 21:16:39;;;;;;;8.88;6.25;;;;;;;3.50;100.00;99701.28;10241625;28;20040;-75
2020/12/30 21:21:40;;;;;;;11.82;8.90;;;;;;;3.50;100.00;99687.41;10243958;29;20098;-74
2020/12/30 21:26:45;;;;;;;11.90;8.73;;;;;;;3.49;100.00;99680.50;10249813;28;20051;-75
2020/12/30 21:31:48;;;;;;;8.18;6.38;;;;;;;3.46;100.00;99678.81;10253030;28;20059;-74
2020/12/30 21:36:53;;;;;;;8.15;6.13;;;;;;;3.41;100.00;99673.75;10249080;29;20051;-75
2020/12/30 21:41:54;;;;;;;9.23;5.60;;;;;;;3.39;100.00;99674.69;10232034;29;20506;-74
2020/12/30 21:46:55;;;;;;;10.45;6.00;;;;;;;3.40;100.00;99671.19;10235648;29;20452;-74
2020/12/30 21:51:57;;;;;;;7.93;5.80;;;;;;;3.39;100.00;99670.34;10235738;29;20070;-74
2020/12/30 21:56:58;;;;;;;8.87;6.57;;;;;;;3.35;100.00;99670.47;10253072;29;20051;-74
2020/12/30 22:01:59;;;;;;;12.55;7.47;;;;;;;3.27;100.00;99670.69;10249668;29;20521;-74
2020/12/30 22:07:00;;;;;;;11.15;7.68;;;;;;;3.21;100.00;99667.44;10234766;29;20491;-74
2020/12/30 22:12:02;;;;;;;15.07;10.23;;;;;;;3.11;100.00;99666.84;10264328;28;20562;-74
2020/12/30 22:17:03;;;;;;;43.72;18.20;;;;;;;3.01;100.00;99662.81;10233930;29;20141;-74
2020/12/30 22:22:04;;;;;;;21.10;10.80;;;;;;;3.05;100.00;99678.28;10252965;29;20472;-74
2020/12/30 22:27:05;;;;;;;39.83;17.08;;;;;;;2.93;100.00;99665.63;10234329;28;20044;-75
2020/12/30 22:32:06;;;;;;;43.00;16.48;;;;;;;3.05;100.00;99683.50;10259185;28;20515;-74
2020/12/30 22:37:07;;;;;;;15.68;10.13;;;;;;;3.15;100.00;99681.47;10258455;28;20062;-74
2020/12/30 22:42:08;;;;;;;46.65;19.80;;;;;;;3.15;100.00;99698.84;10248761;29;20047;-74
2020/12/30 22:47:09;;;;;;;35.83;16.17;;;;;;;3.12;100.00;99696.31;10242190;29;20055;-74
2020/12/30 22:52:11;;;;;;;49.25;20.75;;;;;;;3.07;100.00;99686.06;10258799;29;20039;-74
2020/12/30 22:57:12;;;;;;;46.78;20.95;;;;;;;2.92;100.00;99666.53;10259505;29;20051;-75